sensor_id;sensor_type;location;lat;lon;timestamp;P1;durP1;ratioP1;P2;durP2;ratioP2
25810;SDS011;13645;52.460;13.910;2022-08-14T00:01:51;10.70;;;5.85;;
25810;SDS011;13645;52.460;13.910;2022-08-14T00:04:20;8.75;;;6.00;;
25810;SDS011;13645;52.460;13.910;2022-08-14T00:07:07;7.95;;;5.90;;
25810;SDS011;13645;52.460;13.910;2022-08-14T00:09:35;14.35;;;6.18;;
25810;SDS011;13645;52.460;13.910;2022-08-14T00:12:23;9.63;;;6.28;;
25810;SDS011;13645;52.460;13.910;2022-08-14T00:15:04;8.80;;;6.18;;
25810;SDS011;13645;52.460;13.910;2022-08-14T00:17:40;8.88;;;5.82;;
25810;SDS011;13645;52.460;13.910;2022-08-14T00:20:19;14.77;;;6.80;;
25810;SDS011;13645;52.460;13.910;2022-08-14T00:23:09;8.55;;;6.20;;
25810;SDS011;13645;52.460;13.910;2022-08-14T00:25:43;9.50;;;6.07;;
25810;SDS011;13645;52.460;13.910;2022-08-14T00:28:31;12.75;;;6.57;;
25810;SDS011;13645;52.460;13.910;2022-08-14T00:31:00;12.30;;;6.78;;
25810;SDS011;13645;52.460;13.910;2022-08-14T00:33:30;6.80;;;6.10;;
25810;SDS011;13645;52.460;13.910;2022-08-14T00:36:17;9.50;;;6.55;;
25810;SDS011;13645;52.460;13.910;2022-08-14T00:39:05;12.10;;;6.70;;
25810;SDS011;13645;52.460;13.910;2022-08-14T00:41:34;9.18;;;6.57;;
25810;SDS011;13645;52.460;13.910;2022-08-14T00:44:04;8.18;;;6.00;;
25810;SDS011;13645;52.460;13.910;2022-08-14T00:46:31;6.65;;;6.05;;
25810;SDS011;13645;52.460;13.910;2022-08-14T00:48:58;10.45;;;5.95;;
25810;SDS011;13645;52.460;13.910;2022-08-14T00:51:27;8.95;;;6.55;;
25810;SDS011;13645;52.460;13.910;2022-08-14T00:54:03;9.40;;;6.00;;
25810;SDS011;13645;52.460;13.910;2022-08-14T00:56:46;8.97;;;6.50;;
25810;SDS011;13645;52.460;13.910;2022-08-14T00:59:15;10.98;;;6.10;;
25810;SDS011;13645;52.460;13.910;2022-08-14T01:01:41;8.05;;;6.28;;
25810;SDS011;13645;52.460;13.910;2022-08-14T01:04:09;12.00;;;6.30;;
25810;SDS011;13645;52.460;13.910;2022-08-14T01:06:57;12.65;;;6.53;;
25810;SDS011;13645;52.460;13.910;2022-08-14T01:09:30;10.45;;;7.35;;
25810;SDS011;13645;52.460;13.910;2022-08-14T01:11:57;7.88;;;7.07;;
25810;SDS011;13645;52.460;13.910;2022-08-14T01:14:28;10.55;;;6.40;;
25810;SDS011;13645;52.460;13.910;2022-08-14T01:16:55;10.50;;;6.85;;
25810;SDS011;13645;52.460;13.910;2022-08-14T01:19:23;16.98;;;6.85;;
25810;SDS011;13645;52.460;13.910;2022-08-14T01:22:11;10.40;;;7.28;;
25810;SDS011;13645;52.460;13.910;2022-08-14T01:24:43;11.15;;;7.28;;
25810;SDS011;13645;52.460;13.910;2022-08-14T01:27:15;8.65;;;6.82;;
25810;SDS011;13645;52.460;13.910;2022-08-14T01:29:45;9.85;;;7.15;;
25810;SDS011;13645;52.460;13.910;2022-08-14T01:32:29;9.25;;;7.35;;
25810;SDS011;13645;52.460;13.910;2022-08-14T01:35:10;10.82;;;7.68;;
25810;SDS011;13645;52.460;13.910;2022-08-14T01:37:59;12.70;;;7.78;;
25810;SDS011;13645;52.460;13.910;2022-08-14T01:40:31;9.38;;;7.18;;
25810;SDS011;13645;52.460;13.910;2022-08-14T01:43:07;7.68;;;6.78;;
25810;SDS011;13645;52.460;13.910;2022-08-14T01:45:47;11.88;;;7.30;;
25810;SDS011;13645;52.460;13.910;2022-08-14T01:48:32;10.63;;;7.72;;
25810;SDS011;13645;52.460;13.910;2022-08-14T01:51:03;9.35;;;7.40;;
25810;SDS011;13645;52.460;13.910;2022-08-14T01:53:46;10.57;;;7.25;;
25810;SDS011;13645;52.460;13.910;2022-08-14T01:56:21;7.95;;;6.97;;
25810;SDS011;13645;52.460;13.910;2022-08-14T01:59:24;11.38;;;6.82;;
25810;SDS011;13645;52.460;13.910;2022-08-14T02:02:05;14.50;;;7.35;;
25810;SDS011;13645;52.460;13.910;2022-08-14T02:04:45;8.80;;;6.97;;
25810;SDS011;13645;52.460;13.910;2022-08-14T02:07:22;9.55;;;6.93;;
25810;SDS011;13645;52.460;13.910;2022-08-14T02:10:10;9.68;;;7.13;;
25810;SDS011;13645;52.460;13.910;2022-08-14T02:12:41;8.35;;;6.63;;
25810;SDS011;13645;52.460;13.910;2022-08-14T02:15:22;8.77;;;7.18;;
25810;SDS011;13645;52.460;13.910;2022-08-14T02:17:51;7.82;;;6.85;;
25810;SDS011;13645;52.460;13.910;2022-08-14T02:20:18;8.88;;;6.35;;
25810;SDS011;13645;52.460;13.910;2022-08-14T02:22:49;9.70;;;7.60;;
25810;SDS011;13645;52.460;13.910;2022-08-14T02:25:19;9.45;;;7.28;;
25810;SDS011;13645;52.460;13.910;2022-08-14T02:27:47;8.98;;;6.68;;
25810;SDS011;13645;52.460;13.910;2022-08-14T02:30:34;10.30;;;7.10;;
25810;SDS011;13645;52.460;13.910;2022-08-14T02:33:03;11.25;;;6.85;;
25810;SDS011;13645;52.460;13.910;2022-08-14T02:35:30;11.13;;;7.20;;
25810;SDS011;13645;52.460;13.910;2022-08-14T02:37:58;9.82;;;7.20;;
25810;SDS011;13645;52.460;13.910;2022-08-14T02:40:26;9.27;;;7.57;;
25810;SDS011;13645;52.460;13.910;2022-08-14T02:42:59;12.27;;;7.90;;
25810;SDS011;13645;52.460;13.910;2022-08-14T02:45:28;12.20;;;8.02;;
25810;SDS011;13645;52.460;13.910;2022-08-14T02:48:09;15.88;;;7.88;;
25810;SDS011;13645;52.460;13.910;2022-08-14T02:50:57;12.63;;;7.60;;
25810;SDS011;13645;52.460;13.910;2022-08-14T02:53:26;10.15;;;7.13;;
25810;SDS011;13645;52.460;13.910;2022-08-14T02:55:54;8.82;;;7.57;;
25810;SDS011;13645;52.460;13.910;2022-08-14T02:58:36;13.00;;;7.97;;
25810;SDS011;13645;52.460;13.910;2022-08-14T03:01:07;9.02;;;8.05;;
25810;SDS011;13645;52.460;13.910;2022-08-14T03:03:35;8.18;;;7.38;;
25810;SDS011;13645;52.460;13.910;2022-08-14T03:06:04;8.13;;;7.28;;
25810;SDS011;13645;52.460;13.910;2022-08-14T03:08:34;11.00;;;7.50;;
25810;SDS011;13645;52.460;13.910;2022-08-14T03:11:04;12.95;;;7.95;;
25810;SDS011;13645;52.460;13.910;2022-08-14T03:13:37;8.90;;;7.40;;
25810;SDS011;13645;52.460;13.910;2022-08-14T03:16:08;12.57;;;8.05;;
25810;SDS011;13645;52.460;13.910;2022-08-14T03:18:45;10.68;;;8.23;;
25810;SDS011;13645;52.460;13.910;2022-08-14T03:21:18;12.30;;;8.02;;
25810;SDS011;13645;52.460;13.910;2022-08-14T03:23:48;11.45;;;8.48;;
25810;SDS011;13645;52.460;13.910;2022-08-14T03:26:23;13.18;;;8.25;;
25810;SDS011;13645;52.460;13.910;2022-08-14T03:28:55;12.20;;;8.57;;
25810;SDS011;13645;52.460;13.910;2022-08-14T03:31:27;10.32;;;8.48;;
25810;SDS011;13645;52.460;13.910;2022-08-14T03:33:55;11.55;;;8.65;;
25810;SDS011;13645;52.460;13.910;2022-08-14T03:36:25;11.10;;;8.57;;
25810;SDS011;13645;52.460;13.910;2022-08-14T03:39:13;12.90;;;8.73;;
25810;SDS011;13645;52.460;13.910;2022-08-14T03:41:50;10.32;;;8.23;;
25810;SDS011;13645;52.460;13.910;2022-08-14T03:44:18;10.68;;;8.10;;
25810;SDS011;13645;52.460;13.910;2022-08-14T03:47:05;14.05;;;8.27;;
25810;SDS011;13645;52.460;13.910;2022-08-14T03:49:33;9.68;;;8.25;;
25810;SDS011;13645;52.460;13.910;2022-08-14T03:52:07;10.32;;;8.55;;
25810;SDS011;13645;52.460;13.910;2022-08-14T03:54:56;10.73;;;8.05;;
25810;SDS011;13645;52.460;13.910;2022-08-14T03:57:23;14.35;;;8.45;;
25810;SDS011;13645;52.460;13.910;2022-08-14T03:59:50;11.48;;;8.43;;
25810;SDS011;13645;52.460;13.910;2022-08-14T04:02:16;9.60;;;7.95;;
25810;SDS011;13645;52.460;13.910;2022-08-14T04:05:02;10.68;;;7.60;;
25810;SDS011;13645;52.460;13.910;2022-08-14T04:07:38;11.10;;;8.02;;
25810;SDS011;13645;52.460;13.910;2022-08-14T04:10:25;10.10;;;7.70;;
25810;SDS011;13645;52.460;13.910;2022-08-14T04:12:57;10.35;;;8.15;;
25810;SDS011;13645;52.460;13.910;2022-08-14T04:15:29;10.90;;;8.02;;
25810;SDS011;13645;52.460;13.910;2022-08-14T04:17:56;15.93;;;9.20;;
25810;SDS011;13645;52.460;13.910;2022-08-14T04:20:25;17.65;;;9.30;;
25810;SDS011;13645;52.460;13.910;2022-08-14T04:22:53;11.50;;;9.07;;
25810;SDS011;13645;52.460;13.910;2022-08-14T04:25:20;13.13;;;8.18;;
25810;SDS011;13645;52.460;13.910;2022-08-14T04:27:47;9.73;;;8.82;;
25810;SDS011;13645;52.460;13.910;2022-08-14T04:30:29;11.70;;;8.65;;
25810;SDS011;13645;52.460;13.910;2022-08-14T04:32:58;10.52;;;8.75;;
25810;SDS011;13645;52.460;13.910;2022-08-14T04:35:34;9.93;;;8.93;;
25810;SDS011;13645;52.460;13.910;2022-08-14T04:38:21;9.68;;;8.50;;
25810;SDS011;13645;52.460;13.910;2022-08-14T04:41:07;12.30;;;8.30;;
25810;SDS011;13645;52.460;13.910;2022-08-14T04:43:56;10.30;;;8.80;;
25810;SDS011;13645;52.460;13.910;2022-08-14T04:46:23;10.90;;;8.32;;
25810;SDS011;13645;52.460;13.910;2022-08-14T04:49:10;11.10;;;8.70;;
25810;SDS011;13645;52.460;13.910;2022-08-14T04:51:40;12.77;;;9.25;;
25810;SDS011;13645;52.460;13.910;2022-08-14T04:54:21;18.85;;;8.82;;
25810;SDS011;13645;52.460;13.910;2022-08-14T04:56:49;14.45;;;9.50;;
25810;SDS011;13645;52.460;13.910;2022-08-14T04:59:19;10.52;;;8.50;;
25810;SDS011;13645;52.460;13.910;2022-08-14T05:01:47;13.43;;;9.40;;
25810;SDS011;13645;52.460;13.910;2022-08-14T05:04:21;9.60;;;8.60;;
25810;SDS011;13645;52.460;13.910;2022-08-14T05:06:50;14.52;;;8.90;;
25810;SDS011;13645;52.460;13.910;2022-08-14T05:09:21;12.23;;;8.93;;
25810;SDS011;13645;52.460;13.910;2022-08-14T05:11:49;12.07;;;9.95;;
25810;SDS011;13645;52.460;13.910;2022-08-14T05:14:17;16.42;;;10.40;;
25810;SDS011;13645;52.460;13.910;2022-08-14T05:17:07;15.80;;;10.18;;
25810;SDS011;13645;52.460;13.910;2022-08-14T05:19:36;15.38;;;10.93;;
25810;SDS011;13645;52.460;13.910;2022-08-14T05:22:23;14.93;;;9.85;;
25810;SDS011;13645;52.460;13.910;2022-08-14T05:24:52;13.35;;;11.18;;
25810;SDS011;13645;52.460;13.910;2022-08-14T05:27:19;15.00;;;11.45;;
25810;SDS011;13645;52.460;13.910;2022-08-14T05:29:49;13.05;;;10.05;;
25810;SDS011;13645;52.460;13.910;2022-08-14T05:32:18;12.75;;;11.45;;
25810;SDS011;13645;52.460;13.910;2022-08-14T05:34:46;14.13;;;11.35;;
25810;SDS011;13645;52.460;13.910;2022-08-14T05:37:12;12.15;;;10.40;;
25810;SDS011;13645;52.460;13.910;2022-08-14T05:39:40;12.07;;;10.23;;
25810;SDS011;13645;52.460;13.910;2022-08-14T05:42:07;13.85;;;10.82;;
25810;SDS011;13645;52.460;13.910;2022-08-14T05:44:46;14.07;;;9.75;;
25810;SDS011;13645;52.460;13.910;2022-08-14T05:47:14;13.30;;;10.00;;
25810;SDS011;13645;52.460;13.910;2022-08-14T05:49:43;11.80;;;9.45;;
25810;SDS011;13645;52.460;13.910;2022-08-14T05:52:11;11.00;;;9.60;;
25810;SDS011;13645;52.460;13.910;2022-08-14T05:54:43;11.70;;;9.00;;
25810;SDS011;13645;52.460;13.910;2022-08-14T05:57:10;17.20;;;12.50;;
25810;SDS011;13645;52.460;13.910;2022-08-14T05:59:37;12.73;;;10.73;;
25810;SDS011;13645;52.460;13.910;2022-08-14T06:02:06;10.70;;;9.32;;
25810;SDS011;13645;52.460;13.910;2022-08-14T06:04:35;10.95;;;8.65;;
25810;SDS011;13645;52.460;13.910;2022-08-14T06:07:03;14.40;;;8.52;;
25810;SDS011;13645;52.460;13.910;2022-08-14T06:09:30;12.32;;;8.65;;
25810;SDS011;13645;52.460;13.910;2022-08-14T06:12:08;16.45;;;8.70;;
25810;SDS011;13645;52.460;13.910;2022-08-14T06:14:37;11.02;;;8.90;;
25810;SDS011;13645;52.460;13.910;2022-08-14T06:17:05;10.32;;;8.65;;
25810;SDS011;13645;52.460;13.910;2022-08-14T06:19:32;17.30;;;9.05;;
25810;SDS011;13645;52.460;13.910;2022-08-14T06:21:59;13.73;;;8.85;;
25810;SDS011;13645;52.460;13.910;2022-08-14T06:24:27;16.38;;;8.50;;
25810;SDS011;13645;52.460;13.910;2022-08-14T06:26:59;11.48;;;8.23;;
25810;SDS011;13645;52.460;13.910;2022-08-14T06:29:31;12.55;;;7.82;;
25810;SDS011;13645;52.460;13.910;2022-08-14T06:32:00;11.45;;;8.25;;
25810;SDS011;13645;52.460;13.910;2022-08-14T06:34:48;12.35;;;8.40;;
25810;SDS011;13645;52.460;13.910;2022-08-14T06:37:44;15.57;;;10.27;;
25810;SDS011;13645;52.460;13.910;2022-08-14T06:40:15;16.75;;;12.07;;
25810;SDS011;13645;52.460;13.910;2022-08-14T06:43:00;8.60;;;7.68;;
25810;SDS011;13645;52.460;13.910;2022-08-14T06:45:32;16.00;;;8.38;;
25810;SDS011;13645;52.460;13.910;2022-08-14T06:48:01;11.95;;;7.55;;
25810;SDS011;13645;52.460;13.910;2022-08-14T06:50:31;10.85;;;7.45;;
25810;SDS011;13645;52.460;13.910;2022-08-14T06:52:58;12.40;;;7.65;;
25810;SDS011;13645;52.460;13.910;2022-08-14T06:55:26;9.70;;;7.60;;
25810;SDS011;13645;52.460;13.910;2022-08-14T06:57:54;11.13;;;7.55;;
25810;SDS011;13645;52.460;13.910;2022-08-14T07:00:24;12.00;;;7.00;;
25810;SDS011;13645;52.460;13.910;2022-08-14T07:02:57;11.00;;;7.28;;
25810;SDS011;13645;52.460;13.910;2022-08-14T07:05:44;16.13;;;7.60;;
25810;SDS011;13645;52.460;13.910;2022-08-14T07:10:57;12.30;;;7.00;;
25810;SDS011;13645;52.460;13.910;2022-08-14T07:13:26;9.50;;;7.25;;
25810;SDS011;13645;52.460;13.910;2022-08-14T07:15:54;11.07;;;6.82;;
25810;SDS011;13645;52.460;13.910;2022-08-14T07:18:30;11.13;;;7.18;;
25810;SDS011;13645;52.460;13.910;2022-08-14T07:20:58;9.02;;;7.05;;
25810;SDS011;13645;52.460;13.910;2022-08-14T07:23:26;8.82;;;6.50;;
25810;SDS011;13645;52.460;13.910;2022-08-14T07:25:57;16.17;;;6.50;;
25810;SDS011;13645;52.460;13.910;2022-08-14T07:28:31;10.93;;;6.07;;
25810;SDS011;13645;52.460;13.910;2022-08-14T07:31:09;8.30;;;5.80;;
25810;SDS011;13645;52.460;13.910;2022-08-14T07:36:16;12.75;;;5.93;;
25810;SDS011;13645;52.460;13.910;2022-08-14T07:38:59;8.82;;;5.85;;
25810;SDS011;13645;52.460;13.910;2022-08-14T07:41:37;17.40;;;9.23;;
25810;SDS011;13645;52.460;13.910;2022-08-14T07:44:03;20.10;;;8.65;;
25810;SDS011;13645;52.460;13.910;2022-08-14T07:46:50;18.83;;;6.38;;
25810;SDS011;13645;52.460;13.910;2022-08-14T07:49:17;8.90;;;5.57;;
25810;SDS011;13645;52.460;13.910;2022-08-14T07:51:49;8.45;;;5.35;;
25810;SDS011;13645;52.460;13.910;2022-08-14T07:54:16;8.68;;;5.63;;
25810;SDS011;13645;52.460;13.910;2022-08-14T07:56:58;10.77;;;5.00;;
25810;SDS011;13645;52.460;13.910;2022-08-14T07:59:37;9.65;;;4.90;;
25810;SDS011;13645;52.460;13.910;2022-08-14T08:02:10;5.88;;;4.68;;
25810;SDS011;13645;52.460;13.910;2022-08-14T08:04:45;5.85;;;4.95;;
25810;SDS011;13645;52.460;13.910;2022-08-14T08:07:25;10.23;;;4.43;;
25810;SDS011;13645;52.460;13.910;2022-08-14T08:09:56;13.60;;;4.47;;
25810;SDS011;13645;52.460;13.910;2022-08-14T08:12:24;13.70;;;5.00;;
25810;SDS011;13645;52.460;13.910;2022-08-14T08:14:55;6.43;;;4.03;;
25810;SDS011;13645;52.460;13.910;2022-08-14T08:17:28;15.68;;;3.95;;
25810;SDS011;13645;52.460;13.910;2022-08-14T08:20:04;12.23;;;4.25;;
25810;SDS011;13645;52.460;13.910;2022-08-14T08:22:36;10.48;;;4.28;;
25810;SDS011;13645;52.460;13.910;2022-08-14T08:25:12;5.90;;;3.72;;
25810;SDS011;13645;52.460;13.910;2022-08-14T08:27:56;9.45;;;3.90;;
25810;SDS011;13645;52.460;13.910;2022-08-14T08:30:33;5.53;;;3.70;;
25810;SDS011;13645;52.460;13.910;2022-08-14T08:33:15;11.57;;;4.47;;
25810;SDS011;13645;52.460;13.910;2022-08-14T08:35:43;9.95;;;4.10;;
25810;SDS011;13645;52.460;13.910;2022-08-14T08:38:17;11.05;;;4.50;;
25810;SDS011;13645;52.460;13.910;2022-08-14T08:41:07;10.15;;;4.35;;
25810;SDS011;13645;52.460;13.910;2022-08-14T08:43:37;16.83;;;7.88;;
25810;SDS011;13645;52.460;13.910;2022-08-14T08:46:12;26.80;;;18.35;;
25810;SDS011;13645;52.460;13.910;2022-08-14T08:48:47;7.43;;;4.63;;
25810;SDS011;13645;52.460;13.910;2022-08-14T08:56:46;10.35;;;3.85;;
25810;SDS011;13645;52.460;13.910;2022-08-14T09:04:26;5.68;;;3.78;;
25810;SDS011;13645;52.460;13.910;2022-08-14T09:06:54;8.07;;;3.65;;
25810;SDS011;13645;52.460;13.910;2022-08-14T09:09:35;7.25;;;3.30;;
25810;SDS011;13645;52.460;13.910;2022-08-14T09:12:24;7.22;;;3.50;;
25810;SDS011;13645;52.460;13.910;2022-08-14T09:14:54;7.60;;;3.00;;
25810;SDS011;13645;52.460;13.910;2022-08-14T09:17:22;4.75;;;2.67;;
25810;SDS011;13645;52.460;13.910;2022-08-14T09:19:51;8.57;;;3.28;;
25810;SDS011;13645;52.460;13.910;2022-08-14T09:22:18;9.93;;;3.10;;
25810;SDS011;13645;52.460;13.910;2022-08-14T09:25:02;12.40;;;5.30;;
25810;SDS011;13645;52.460;13.910;2022-08-14T09:27:35;8.52;;;4.28;;
25810;SDS011;13645;52.460;13.910;2022-08-14T09:30:05;5.35;;;2.72;;
25810;SDS011;13645;52.460;13.910;2022-08-14T09:35:48;6.55;;;3.20;;
25810;SDS011;13645;52.460;13.910;2022-08-14T09:45:12;10.90;;;3.40;;
25810;SDS011;13645;52.460;13.910;2022-08-14T09:50:20;8.55;;;3.40;;
25810;SDS011;13645;52.460;13.910;2022-08-14T09:53:01;6.68;;;3.20;;
25810;SDS011;13645;52.460;13.910;2022-08-14T09:55:42;7.93;;;3.95;;
25810;SDS011;13645;52.460;13.910;2022-08-14T10:00:51;12.80;;;3.92;;
25810;SDS011;13645;52.460;13.910;2022-08-14T10:03:29;9.88;;;3.50;;
25810;SDS011;13645;52.460;13.910;2022-08-14T10:06:07;10.05;;;3.38;;
25810;SDS011;13645;52.460;13.910;2022-08-14T10:08:52;10.70;;;3.70;;
25810;SDS011;13645;52.460;13.910;2022-08-14T10:14:13;11.95;;;3.45;;
25810;SDS011;13645;52.460;13.910;2022-08-14T10:17:01;5.90;;;3.17;;
25810;SDS011;13645;52.460;13.910;2022-08-14T10:19:32;9.68;;;3.30;;
25810;SDS011;13645;52.460;13.910;2022-08-14T10:22:06;5.03;;;2.65;;
25810;SDS011;13645;52.460;13.910;2022-08-14T10:24:55;8.00;;;2.65;;
25810;SDS011;13645;52.460;13.910;2022-08-14T10:27:25;7.55;;;2.72;;
25810;SDS011;13645;52.460;13.910;2022-08-14T10:29:54;4.55;;;2.40;;
25810;SDS011;13645;52.460;13.910;2022-08-14T10:32:24;8.07;;;2.60;;
25810;SDS011;13645;52.460;13.910;2022-08-14T10:35:13;7.82;;;3.30;;
25810;SDS011;13645;52.460;13.910;2022-08-14T10:37:43;22.48;;;16.85;;
25810;SDS011;13645;52.460;13.910;2022-08-14T10:40:14;8.60;;;2.60;;
25810;SDS011;13645;52.460;13.910;2022-08-14T10:43:17;6.55;;;2.70;;
25810;SDS011;13645;52.460;13.910;2022-08-14T10:45:55;5.65;;;2.63;;
25810;SDS011;13645;52.460;13.910;2022-08-14T10:48:58;6.28;;;2.60;;
25810;SDS011;13645;52.460;13.910;2022-08-14T10:51:31;6.53;;;2.28;;
25810;SDS011;13645;52.460;13.910;2022-08-14T10:54:07;6.82;;;2.70;;
25810;SDS011;13645;52.460;13.910;2022-08-14T10:57:11;11.00;;;2.63;;
25810;SDS011;13645;52.460;13.910;2022-08-14T10:59:45;10.32;;;2.78;;
25810;SDS011;13645;52.460;13.910;2022-08-14T11:05:15;4.90;;;2.75;;
25810;SDS011;13645;52.460;13.910;2022-08-14T11:10:38;4.88;;;2.40;;
25810;SDS011;13645;52.460;13.910;2022-08-14T11:13:08;5.88;;;2.35;;
25810;SDS011;13645;52.460;13.910;2022-08-14T11:15:35;4.05;;;2.45;;
25810;SDS011;13645;52.460;13.910;2022-08-14T11:18:02;6.57;;;2.20;;
25810;SDS011;13645;52.460;13.910;2022-08-14T11:20:31;7.95;;;2.17;;
25810;SDS011;13645;52.460;13.910;2022-08-14T11:22:59;12.85;;;2.40;;
25810;SDS011;13645;52.460;13.910;2022-08-14T11:25:28;5.95;;;2.25;;
25810;SDS011;13645;52.460;13.910;2022-08-14T11:28:09;7.50;;;2.22;;
25810;SDS011;13645;52.460;13.910;2022-08-14T11:30:44;9.05;;;2.33;;
25810;SDS011;13645;52.460;13.910;2022-08-14T11:33:23;3.05;;;2.00;;
25810;SDS011;13645;52.460;13.910;2022-08-14T11:35:55;9.93;;;6.25;;
25810;SDS011;13645;52.460;13.910;2022-08-14T11:38:27;11.43;;;3.38;;
25810;SDS011;13645;52.460;13.910;2022-08-14T11:41:11;11.90;;;2.40;;
25810;SDS011;13645;52.460;13.910;2022-08-14T11:43:43;7.32;;;2.08;;
25810;SDS011;13645;52.460;13.910;2022-08-14T11:46:23;8.27;;;2.10;;
25810;SDS011;13645;52.460;13.910;2022-08-14T11:49:03;6.38;;;2.13;;
25810;SDS011;13645;52.460;13.910;2022-08-14T11:51:31;6.15;;;2.00;;
25810;SDS011;13645;52.460;13.910;2022-08-14T11:54:18;5.38;;;1.65;;
25810;SDS011;13645;52.460;13.910;2022-08-14T11:56:58;2.85;;;1.70;;
25810;SDS011;13645;52.460;13.910;2022-08-14T11:59:25;3.38;;;1.83;;
25810;SDS011;13645;52.460;13.910;2022-08-14T12:02:11;4.25;;;1.88;;
25810;SDS011;13645;52.460;13.910;2022-08-14T12:04:59;4.15;;;1.70;;
25810;SDS011;13645;52.460;13.910;2022-08-14T12:07:29;2.95;;;1.50;;
25810;SDS011;13645;52.460;13.910;2022-08-14T12:09:57;2.85;;;1.50;;
25810;SDS011;13645;52.460;13.910;2022-08-14T12:12:26;8.20;;;1.80;;
25810;SDS011;13645;52.460;13.910;2022-08-14T12:15:01;4.40;;;1.80;;
25810;SDS011;13645;52.460;13.910;2022-08-14T12:17:30;7.70;;;1.70;;
25810;SDS011;13645;52.460;13.910;2022-08-14T12:20:13;2.95;;;1.88;;
25810;SDS011;13645;52.460;13.910;2022-08-14T12:22:43;4.70;;;1.77;;
25810;SDS011;13645;52.460;13.910;2022-08-14T12:25:18;4.97;;;2.00;;
25810;SDS011;13645;52.460;13.910;2022-08-14T12:27:51;5.60;;;2.10;;
25810;SDS011;13645;52.460;13.910;2022-08-14T12:30:35;3.67;;;1.92;;
25810;SDS011;13645;52.460;13.910;2022-08-14T12:33:26;6.18;;;2.20;;
25810;SDS011;13645;52.460;13.910;2022-08-14T12:35:59;8.50;;;2.10;;
25810;SDS011;13645;52.460;13.910;2022-08-14T12:38:31;4.95;;;2.22;;
25810;SDS011;13645;52.460;13.910;2022-08-14T12:41:01;6.32;;;2.10;;
25810;SDS011;13645;52.460;13.910;2022-08-14T12:43:30;2.70;;;2.30;;
25810;SDS011;13645;52.460;13.910;2022-08-14T12:45:58;5.78;;;2.15;;
25810;SDS011;13645;52.460;13.910;2022-08-14T12:48:26;6.28;;;2.08;;
25810;SDS011;13645;52.460;13.910;2022-08-14T12:50:57;6.57;;;2.42;;
25810;SDS011;13645;52.460;13.910;2022-08-14T12:53:32;4.88;;;2.17;;
25810;SDS011;13645;52.460;13.910;2022-08-14T12:56:04;5.90;;;2.22;;
25810;SDS011;13645;52.460;13.910;2022-08-14T12:58:54;2.80;;;2.05;;
25810;SDS011;13645;52.460;13.910;2022-08-14T13:01:26;7.53;;;2.53;;
25810;SDS011;13645;52.460;13.910;2022-08-14T13:04:03;6.63;;;2.30;;
25810;SDS011;13645;52.460;13.910;2022-08-14T13:06:36;4.47;;;3.13;;
25810;SDS011;13645;52.460;13.910;2022-08-14T13:09:05;7.10;;;1.95;;
25810;SDS011;13645;52.460;13.910;2022-08-14T13:11:37;4.88;;;1.80;;
25810;SDS011;13645;52.460;13.910;2022-08-14T13:14:11;3.80;;;1.80;;
25810;SDS011;13645;52.460;13.910;2022-08-14T13:16:43;4.65;;;1.90;;
25810;SDS011;13645;52.460;13.910;2022-08-14T13:19:15;5.80;;;1.80;;
25810;SDS011;13645;52.460;13.910;2022-08-14T13:21:46;3.58;;;1.73;;
25810;SDS011;13645;52.460;13.910;2022-08-14T13:24:31;8.38;;;1.90;;
25810;SDS011;13645;52.460;13.910;2022-08-14T13:26:59;3.80;;;1.67;;
25810;SDS011;13645;52.460;13.910;2022-08-14T13:29:29;20.30;;;12.52;;
25810;SDS011;13645;52.460;13.910;2022-08-14T13:32:05;3.45;;;1.90;;
25810;SDS011;13645;52.460;13.910;2022-08-14T13:34:34;5.82;;;2.30;;
25810;SDS011;13645;52.460;13.910;2022-08-14T13:37:02;5.68;;;1.88;;
25810;SDS011;13645;52.460;13.910;2022-08-14T13:39:32;13.82;;;2.10;;
25810;SDS011;13645;52.460;13.910;2022-08-14T13:42:03;6.03;;;1.60;;
25810;SDS011;13645;52.460;13.910;2022-08-14T13:44:39;3.22;;;1.77;;
25810;SDS011;13645;52.460;13.910;2022-08-14T13:47:08;7.35;;;1.50;;
25810;SDS011;13645;52.460;13.910;2022-08-14T13:49:40;7.10;;;1.88;;
25810;SDS011;13645;52.460;13.910;2022-08-14T13:52:23;6.35;;;1.85;;
25810;SDS011;13645;52.460;13.910;2022-08-14T13:55:11;3.85;;;1.60;;
25810;SDS011;13645;52.460;13.910;2022-08-14T13:57:41;7.40;;;2.03;;
25810;SDS011;13645;52.460;13.910;2022-08-14T14:00:28;5.88;;;1.90;;
25810;SDS011;13645;52.460;13.910;2022-08-14T14:03:20;6.63;;;2.03;;
25810;SDS011;13645;52.460;13.910;2022-08-14T14:05:52;8.43;;;1.77;;
25810;SDS011;13645;52.460;13.910;2022-08-14T14:08:21;2.22;;;1.73;;
25810;SDS011;13645;52.460;13.910;2022-08-14T14:11:09;6.03;;;1.60;;
25810;SDS011;13645;52.460;13.910;2022-08-14T14:13:40;5.03;;;1.60;;
25810;SDS011;13645;52.460;13.910;2022-08-14T14:16:10;6.85;;;1.60;;
25810;SDS011;13645;52.460;13.910;2022-08-14T14:18:50;3.40;;;1.85;;
25810;SDS011;13645;52.460;13.910;2022-08-14T14:21:27;4.50;;;1.70;;
25810;SDS011;13645;52.460;13.910;2022-08-14T14:23:57;3.97;;;1.67;;
25810;SDS011;13645;52.460;13.910;2022-08-14T14:26:26;2.17;;;1.70;;
25810;SDS011;13645;52.460;13.910;2022-08-14T14:28:58;5.82;;;2.10;;
25810;SDS011;13645;52.460;13.910;2022-08-14T14:31:27;7.50;;;2.00;;
25810;SDS011;13645;52.460;13.910;2022-08-14T14:33:58;9.68;;;2.00;;
25810;SDS011;13645;52.460;13.910;2022-08-14T14:36:37;7.03;;;1.95;;
25810;SDS011;13645;52.460;13.910;2022-08-14T14:39:08;4.38;;;1.98;;
25810;SDS011;13645;52.460;13.910;2022-08-14T14:41:36;8.80;;;2.20;;
25810;SDS011;13645;52.460;13.910;2022-08-14T14:44:10;4.78;;;2.45;;
25810;SDS011;13645;52.460;13.910;2022-08-14T14:46:42;9.55;;;2.78;;
25810;SDS011;13645;52.460;13.910;2022-08-14T14:49:16;4.32;;;2.08;;
25810;SDS011;13645;52.460;13.910;2022-08-14T14:51:47;5.57;;;2.13;;
25810;SDS011;13645;52.460;13.910;2022-08-14T14:54:20;2.88;;;1.95;;
25810;SDS011;13645;52.460;13.910;2022-08-14T14:57:02;7.15;;;2.28;;
25810;SDS011;13645;52.460;13.910;2022-08-14T14:59:34;6.40;;;2.40;;
25810;SDS011;13645;52.460;13.910;2022-08-14T15:02:03;5.68;;;2.35;;
25810;SDS011;13645;52.460;13.910;2022-08-14T15:04:33;4.35;;;2.30;;
25810;SDS011;13645;52.460;13.910;2022-08-14T15:07:03;5.43;;;2.40;;
25810;SDS011;13645;52.460;13.910;2022-08-14T15:09:32;6.93;;;2.55;;
25810;SDS011;13645;52.460;13.910;2022-08-14T15:11:59;6.13;;;2.50;;
25810;SDS011;13645;52.460;13.910;2022-08-14T15:14:47;6.18;;;2.75;;
25810;SDS011;13645;52.460;13.910;2022-08-14T15:17:23;8.73;;;3.00;;
25810;SDS011;13645;52.460;13.910;2022-08-14T15:20:04;14.45;;;2.83;;
25810;SDS011;13645;52.460;13.910;2022-08-14T15:22:33;7.05;;;4.85;;
25810;SDS011;13645;52.460;13.910;2022-08-14T15:25:01;7.35;;;2.50;;
25810;SDS011;13645;52.460;13.910;2022-08-14T15:27:28;7.95;;;3.03;;
25810;SDS011;13645;52.460;13.910;2022-08-14T15:29:57;9.68;;;3.38;;
25810;SDS011;13645;52.460;13.910;2022-08-14T15:32:24;9.88;;;3.00;;
25810;SDS011;13645;52.460;13.910;2022-08-14T15:34:54;6.18;;;3.15;;
25810;SDS011;13645;52.460;13.910;2022-08-14T15:37:21;12.90;;;3.30;;
25810;SDS011;13645;52.460;13.910;2022-08-14T15:39:48;3.85;;;2.80;;
25810;SDS011;13645;52.460;13.910;2022-08-14T15:42:18;4.82;;;2.95;;
25810;SDS011;13645;52.460;13.910;2022-08-14T15:44:49;7.65;;;3.08;;
25810;SDS011;13645;52.460;13.910;2022-08-14T15:47:26;7.60;;;3.00;;
25810;SDS011;13645;52.460;13.910;2022-08-14T15:49:56;5.35;;;3.10;;